Carthage, North Carolina
Current Conditions -  °F | °C
As of 6:15 PM on Friday 31 Oct 2014 (Local Time) from KSOP Reporting Station
Overcast Overcast  
Wind Chill: 57°   Ceiling: 7000
Heat Index: 57°   Visibility: 10mi
Dew Point: 43°   Wind: 3mph
Humidity: 59%   Direction: 40°NE
Pressure: 29.81"   Gusts: NA
Location:  35.35°N, 79.42°W
Report Text: KSOP 312215Z AUTO 04003KT 10SM BKN070 OVC085 14/06 A2981 RMK AO1
Loading
Personal Weather Stations






























Interactive Weather Map
Tropical Storm Tracking
New forecast layout! Learn more

10-Day Weather Forecast

Advertisements
Track Severe Weather on mobile